• Join FlightAware (Why Join?)
  • Login
  • US Flag 
03:16PM EDT


 

Airport Tracker/Info


-or-


 

Live Flight TrackerFlight Track Log ✈ RPA3869 ✈ 11-May-2013 ✈ KEWR - CYYZ

Flight Track Log - Related Links

Times and Time Zones

All times are in EDT time to prevent confusion due to time zone crossing. See the RPA3869 flight status page for this flight to view local times or setup timezone preferences in your user account.

Time Position Orientation Groundspeed Altitude Reporting Facility
EDT Latitude Longitude Course Direction KTS MPH feet Rate Location/Type
06:15PM 40.6667 -74.1833 217° Southwest 150 173 500  Level New York TRACON
06:16PM 40.6333 -74.2167 217° Southwest 209 241 2,100 1,860 Climbing New York TRACON
06:17PM 40.6500 -74.2667 294° West 227 261 4,300 2,100 Climbing New York TRACON
06:18PM 40.7167 -74.3000 339° North 238 274 6,300 1,980 Climbing New York TRACON
06:19PM 40.7667 -74.3333 333° Northwest 239 275 8,400 2,100 Climbing New York TRACON
06:20PM 40.8333 -74.3833 330° Northwest 243 280 10,600 1,860 Climbing New York TRACON
06:21PM 40.8833 -74.4333 323° Northwest 242 278 12,200 1,440 Climbing New York TRACON
06:22PM 40.9161 -74.4700 320° Northwest 250 288 12,800 1,200 Climbing New York Center
06:23PM 40.9686 -74.5250 322° Northwest 263 303 14,000 600 Climbing New York Center
06:24PM 41.0353 -74.5919 323° Northwest 283 326 14,000  Level New York Center
06:25PM 41.1100 -74.6650 324° Northwest 321 369 14,000  Level New York Center
06:26PM 41.1653 -74.7536 310° West 326 375 14,000 540 Level New York Center
06:28PM 41.2481 -74.9517 299° West 309 356 15,700 900 Climbing New York Center
06:29PM 41.2883 -75.0425 301° West 304 350 16,900 1,320 Climbing New York Center
06:30PM 41.3211 -75.1219 299° West 288 331 18,400 1,260 Climbing New York Center
06:31PM 41.3575 -75.2072 300° West 283 326 19,400 1,080 Climbing New York Center
06:32PM 41.3936 -75.2953 299° West 269 310 20,600 1,140 Climbing New York Center
06:33PM 41.4300 -75.3753 301° West 269 310 21,700 1,020 Climbing New York Center
06:34PM 41.4664 -75.4608 300° West 269 310 22,700 840 Climbing New York Center
06:35PM 41.4942 -75.5458 294° West 264 304 23,500 600 Climbing New York Center
06:36PM 41.5197 -75.6361 291° West 259 298 24,000 240 Climbing New York Center
06:37PM 41.5467 -75.7353 290° West 265 305 24,000  Level New York Center
06:38PM 41.5758 -75.8372 291° West 279 321 24,000  Level New York Center
06:39PM 41.6086 -75.9450 292° West 302 348 24,000  Level New York Center
06:40PM 41.6428 -76.0672 291° West 320 368 24,000  Level New York Center
06:41PM 41.6731 -76.1806 290° West 320 368 24,000  Level New York Center
06:42PM 41.7056 -76.2917 291° West 320 368 24,000  Level New York Center
06:43PM 41.7356 -76.4025 290° West 320 368 24,000  Level New York Center
06:44PM 41.7642 -76.5022 291° West 320 368 24,000  Level New York Center
06:45PM 41.8175 -76.6042 305° West 320 368 24,000  Level New York Center
06:46PM 41.8817 -76.6964 313° West 332 382 24,000  Level New York Center
06:47PM 41.9436 -76.7911 303° West 332 382 24,000  Level New York Center
06:48PM 42.0158 -76.9078 310° West 340 391 24,000  Level Cleveland Center
06:49PM 42.0792 -76.9992 313° West 340 391 24,000  Level Cleveland Center
06:50PM 42.1344 -77.0997 307° West 340 391 24,000  Level Cleveland Center
06:51PM 42.1856 -77.2006 304° West 334 384 24,000  Level Cleveland Center
06:52PM 42.2383 -77.3017 305° West 329 379 24,000  Level Cleveland Center
06:53PM 42.2933 -77.4028 306° West 329 379 24,000  Level Cleveland Center
06:54PM 42.3439 -77.5014 305° West 329 379 24,000  Level Cleveland Center
06:55PM 42.3989 -77.6056 306° West 329 379 24,000  Level Cleveland Center
06:56PM 42.4517 -77.7100 304° West 329 379 24,000  Level Cleveland Center
06:57PM 42.5019 -77.8092 305° West 329 379 24,000  Level Cleveland Center
06:58PM 42.5497 -77.8972 306° West 329 379 24,000  Level Cleveland Center
06:59PM 42.6022 -78.0022 304° West 329 379 24,000  Level Cleveland Center
07:00PM 42.6544 -78.1044 305° West 329 379 24,000  Level Cleveland Center
07:01PM 42.7067 -78.2014 306° West 329 379 24,000 -180 Level Cleveland Center
07:02PM 42.7589 -78.3069 304° West 329 379 23,700 -660 Descending Cleveland Center
07:03PM 42.8108 -78.4097 305° West 329 379 22,700 -1,140 Descending Cleveland Center
07:04PM 42.8628 -78.5128 305° West 329 379 21,500 -1,320 Descending Cleveland Center
07:05PM 42.9144 -78.6131 305° West 329 379 20,100 -1,500 Descending Cleveland Center
07:06PM 42.9661 -78.7136 305° West 329 379 18,500 -1,980 Descending Cleveland Center
07:07PM 43.0500 -78.8833 304° West 330 380 15,000 -2,100 Descending Toronto Center
07:08PM 43.1000 -78.9667 309° West 320 368 13,000 -1,500 Descending Toronto Center
07:09PM 43.1500 -79.0667 304° West 310 357 12,000 -1,080 Descending Toronto Center
07:10PM 43.2000 -79.1500 309° West 300 345 10,900 -1,080 Descending Toronto Center
07:11PM 43.2500 -79.2500 304° West 270 311 9,900 -900 Descending Toronto Center
07:12PM 43.2833 -79.3167 304° West 270 311 9,100 -480 Descending Toronto Center
07:13PM 43.3500 -79.3833 324° Northwest 270 311 9,000 -540 Descending Toronto Center
07:14PM 43.4167 -79.4333 331° Northwest 280 322 8,100 -540 Descending Toronto Center
07:15PM 43.4833 -79.4667 340° North 260 299 8,000 -60 Descending Toronto Center
07:16PM 43.5500 -79.5000 340° North 270 311 8,000 -600 Level Toronto Center
07:17PM 43.6167 -79.4333 36° Northeast 280 322 6,800 -1,440 Descending Toronto Center
07:18PM 43.6667 -79.3833 36° Northeast 260 299 5,200 -1,440 Descending Toronto Center
07:19PM 43.7333 -79.3333 28° Northeast 250 288 4,000 -780 Descending Toronto Center
07:20PM 43.7833 -79.3833 324° Northwest 220 253 3,700 -540 Descending Toronto Center
07:21PM 43.7500 -79.4500 235° Southwest 220 253 3,000 -840 Descending Toronto Center
07:22PM 43.7167 -79.5000 227° Southwest 160 184 2,100 -780 Descending Toronto Center
07:23PM 43.7000 -79.5333 235° Southwest 120 138 1,500 -540 Descending Toronto Center
07:25PM 43.6667 -79.5833 227° Southwest 110 127 500 -540 Descending Toronto Center